Time;durP1;ratioP1;P1;durP2;ratioP2;P2;SDS_P1;SDS_P2;PMS_P1;PMS_P2;Temp;Humidity;BMP_temperature;BMP_pressure;BME280_temperature;BME280_humidity;BME280_pressure;Samples;Min_cycle;Max_cycle;Signal;HPM_P1;HPM_P2
2022/11/29 00:01:46;;;;;;;21.87;14.50;;;1.20;99.90;;;;;;8367595;28;20208;-79
2022/11/29 00:05:47;;;;;;;22.07;13.73;;;1.20;99.90;;;;;;8370471;28;20181;-79
2022/11/29 00:09:48;;;;;;;24.50;14.30;;;1.10;99.90;;;;;;8370957;28;20181;-79
2022/11/29 00:13:49;;;;;;;23.47;14.07;;;1.10;99.90;;;;;;8370314;28;20178;-78
2022/11/29 00:17:50;;;;;;;22.70;13.70;;;1.10;99.90;;;;;;8375269;28;20217;-78
2022/11/29 00:21:50;;;;;;;22.10;12.67;;;1.10;99.90;;;;;;8366748;28;20593;-78
2022/11/29 00:25:52;;;;;;;20.17;13.03;;;1.10;99.90;;;;;;8379169;28;20178;-79
2022/11/29 00:29:53;;;;;;;22.87;13.43;;;1.10;99.90;;;;;;8370021;28;20197;-79
2022/11/29 00:33:54;;;;;;;21.03;12.53;;;1.10;99.90;;;;;;8367626;28;20525;-78
2022/11/29 00:37:55;;;;;;;21.53;12.83;;;1.10;99.90;;;;;;8365931;28;20174;-78
2022/11/29 00:41:56;;;;;;;21.27;13.07;;;1.10;99.90;;;;;;8366953;28;20205;-79
2022/11/29 00:45:57;;;;;;;21.77;12.73;;;1.10;99.90;;;;;;8371410;28;20184;-79
2022/11/29 00:49:58;;;;;;;22.47;13.57;;;1.10;99.90;;;;;;8366373;28;20262;-78
2022/11/29 00:53:58;;;;;;;19.70;12.27;;;1.00;99.90;;;;;;8371047;28;20332;-79
2022/11/29 00:57:59;;;;;;;23.83;12.63;;;1.00;99.90;;;;;;8368903;28;20224;-79
2022/11/29 01:02:00;;;;;;;19.90;12.43;;;1.00;99.90;;;;;;8374161;28;20228;-79
2022/11/29 01:06:07;;;;;;;21.77;12.57;;;1.00;99.90;;;;;;8367558;28;20239;-78
2022/11/29 01:10:08;;;;;;;22.43;13.03;;;1.00;99.90;;;;;;8368970;28;20190;-78
2022/11/29 01:14:10;;;;;;;21.07;13.13;;;1.00;99.90;;;;;;8368465;28;20239;-78
2022/11/29 01:18:11;;;;;;;21.70;12.87;;;0.90;99.90;;;;;;8367561;28;20253;-79
2022/11/29 01:22:12;;;;;;;21.80;13.27;;;0.90;99.90;;;;;;8371425;28;20212;-79
2022/11/29 01:26:24;;;;;;;20.00;12.77;;;0.90;99.90;;;;;;8372298;28;20185;-79
2022/11/29 01:30:25;;;;;;;21.17;12.07;;;0.90;99.90;;;;;;8370895;28;20197;-78
2022/11/29 01:34:26;;;;;;;20.10;12.10;;;0.90;99.90;;;;;;8363611;28;20239;-79
2022/11/29 01:38:27;;;;;;;18.30;11.77;;;0.90;99.90;;;;;;8364933;28;20209;-78
2022/11/29 01:42:27;;;;;;;20.40;12.47;;;0.90;99.90;;;;;;8373462;28;20209;-79
2022/11/29 01:46:31;;;;;;;21.43;12.00;;;0.80;99.90;;;;;;8366966;28;20186;-79
2022/11/29 01:50:32;;;;;;;19.17;12.40;;;0.80;99.90;;;;;;8366645;28;20194;-79
2022/11/29 01:54:36;;;;;;;21.40;12.90;;;0.80;99.90;;;;;;8371383;28;20188;-78
2022/11/29 01:58:38;;;;;;;22.63;13.13;;;0.80;99.90;;;;;;8361416;28;20375;-78
2022/11/29 02:03:12;;;;;;;23.50;12.83;;;0.80;99.90;;;;;;8372730;28;20219;-78
2022/11/29 02:07:13;;;;;;;21.30;12.87;;;0.80;99.90;;;;;;8370354;28;20190;-78
2022/11/29 02:11:35;;;;;;;24.83;13.80;;;0.80;99.90;;;;;;8375113;28;20216;-79
2022/11/29 02:15:39;;;;;;;22.70;12.80;;;0.80;99.90;;;;;;8360859;28;20181;-79
2022/11/29 02:19:45;;;;;;;20.50;11.40;;;0.80;99.90;;;;;;8368892;28;20195;-79
2022/11/29 02:23:55;;;;;;;23.37;13.10;;;0.80;99.90;;;;;;8366038;28;20188;-79
2022/11/29 02:28:26;;;;;;;21.37;12.87;;;0.80;99.90;;;;;;8368262;28;20185;-79
2022/11/29 02:33:04;;;;;;;23.40;12.70;;;0.80;99.90;;;;;;8366013;28;20497;-79
2022/11/29 02:37:28;;;;;;;19.83;12.97;;;0.80;99.90;;;;;;8371736;28;20177;-79
2022/11/29 02:41:51;;;;;;;19.33;11.67;;;0.80;99.90;;;;;;8373172;28;20250;-79
2022/11/29 02:46:21;;;;;;;17.63;11.53;;;0.70;99.90;;;;;;8374350;28;20176;-79
2022/11/29 02:50:57;;;;;;;19.07;11.07;;;0.70;99.90;;;;;;8375643;28;20188;-79
2022/11/29 02:55:07;;;;;;;18.47;11.77;;;0.70;99.90;;;;;;8373931;28;20196;-80
2022/11/29 02:59:19;;;;;;;21.17;13.20;;;0.70;99.90;;;;;;8373372;28;20277;-79
2022/11/29 03:03:24;;;;;;;20.57;12.80;;;0.70;99.90;;;;;;8375228;28;20185;-79
2022/11/29 03:07:40;;;;;;;19.53;11.27;;;0.70;99.90;;;;;;8376376;28;20173;-79
2022/11/29 03:12:30;;;;;;;19.13;11.97;;;0.70;99.90;;;;;;8379838;28;20178;-79
2022/11/29 03:16:46;;;;;;;18.63;11.77;;;0.70;99.90;;;;;;8373719;28;20193;-78
2022/11/29 03:20:59;;;;;;;18.77;10.97;;;0.70;99.90;;;;;;8377736;28;20206;-79
2022/11/29 03:25:28;;;;;;;20.27;11.27;;;0.70;99.90;;;;;;8374991;28;20317;-79
2022/11/29 03:29:35;;;;;;;22.03;11.73;;;0.60;99.90;;;;;;8377810;28;20193;-79
2022/11/29 03:34:02;;;;;;;19.30;12.37;;;0.70;99.90;;;;;;8378047;28;20189;-79
2022/11/29 03:38:15;;;;;;;20.50;12.57;;;0.70;99.90;;;;;;8374354;28;20196;-80
2022/11/29 03:43:04;;;;;;;23.50;14.10;;;0.70;99.90;;;;;;8367869;28;20202;-80
2022/11/29 03:47:08;;;;;;;18.77;11.80;;;0.70;99.90;;;;;;8373111;28;20224;-80
2022/11/29 03:51:18;;;;;;;22.30;12.20;;;0.70;99.90;;;;;;8372349;28;20221;-80
2022/11/29 03:55:27;;;;;;;20.03;11.87;;;0.70;99.90;;;;;;8372173;28;20197;-80
2022/11/29 03:59:54;;;;;;;21.20;13.20;;;0.70;99.90;;;;;;8379061;28;20228;-80
2022/11/29 04:04:33;;;;;;;24.07;14.20;;;0.60;99.90;;;;;;8376245;28;20185;-78
2022/11/29 04:08:49;;;;;;;34.20;18.37;;;0.70;99.90;;;;;;8374079;28;20189;-78
2022/11/29 04:13:08;;;;;;;47.97;25.50;;;0.70;99.90;;;;;;8373924;28;20301;-78
2022/11/29 04:17:47;;;;;;;29.50;17.47;;;0.70;99.90;;;;;;8372119;28;20364;-79
2022/11/29 04:22:15;;;;;;;45.80;27.77;;;0.60;99.90;;;;;;8367664;28;20266;-79
2022/11/29 04:26:37;;;;;;;38.73;22.10;;;0.60;99.90;;;;;;8367753;28;20178;-79
2022/11/29 04:31:12;;;;;;;39.90;22.60;;;0.60;99.90;;;;;;8372079;28;20427;-80
2022/11/29 04:35:50;;;;;;;50.33;29.37;;;0.50;99.90;;;;;;8371942;28;20185;-80
2022/11/29 04:40:32;;;;;;;45.97;24.93;;;0.50;99.90;;;;;;8375966;28;20238;-80
2022/11/29 04:45:26;;;;;;;33.90;20.40;;;0.50;99.90;;;;;;8376196;28;20231;-80
2022/11/29 04:49:36;;;;;;;27.67;15.73;;;0.50;99.90;;;;;;8357437;28;20197;-79
2022/11/29 04:54:04;;;;;;;30.53;17.17;;;0.40;99.90;;;;;;8367392;28;20178;-79
2022/11/29 04:58:32;;;;;;;26.40;15.30;;;0.40;99.90;;;;;;8377078;28;20206;-79
2022/11/29 05:03:05;;;;;;;23.07;13.73;;;0.40;99.90;;;;;;8377452;28;20205;-79
2022/11/29 05:07:18;;;;;;;24.83;15.60;;;0.40;99.90;;;;;;8371685;28;20191;-80
2022/11/29 05:11:34;;;;;;;29.60;16.13;;;0.40;99.90;;;;;;8367553;28;20209;-79
2022/11/29 05:15:56;;;;;;;27.13;15.93;;;0.40;99.90;;;;;;8365671;28;20394;-79
2022/11/29 05:20:09;;;;;;;27.63;14.80;;;0.30;99.90;;;;;;8376276;28;20276;-79
2022/11/29 05:24:34;;;;;;;23.90;14.30;;;0.30;99.90;;;;;;8367194;28;20209;-79
2022/11/29 05:28:47;;;;;;;22.80;14.13;;;0.30;99.90;;;;;;8378220;28;20182;-78
2022/11/29 05:32:47;;;;;;;18.67;12.17;;;0.30;99.90;;;;;;8365736;28;20181;-79
2022/11/29 05:37:06;;;;;;;22.07;14.00;;;0.20;99.90;;;;;;8368604;28;20291;-79
2022/11/29 05:41:25;;;;;;;25.00;13.67;;;0.20;99.90;;;;;;8372229;28;20220;-79
2022/11/29 05:45:33;;;;;;;30.10;17.83;;;0.20;99.90;;;;;;8375863;28;20170;-79
2022/11/29 05:49:46;;;;;;;33.47;18.17;;;0.20;99.90;;;;;;8367667;28;20264;-78
2022/11/29 05:53:53;;;;;;;28.57;16.63;;;0.20;99.90;;;;;;8379282;28;20178;-79
2022/11/29 05:57:57;;;;;;;24.83;16.33;;;0.20;99.90;;;;;;8365275;28;20204;-79
2022/11/29 06:02:45;;;;;;;29.83;17.63;;;0.20;99.90;;;;;;8370213;28;20217;-79
2022/11/29 06:06:57;;;;;;;24.83;14.53;;;0.20;99.90;;;;;;8372769;28;20292;-79
2022/11/29 06:11:19;;;;;;;21.17;13.87;;;0.20;99.90;;;;;;8374587;28;20200;-79
2022/11/29 06:15:29;;;;;;;21.27;13.93;;;0.10;99.90;;;;;;8366930;28;20224;-79
2022/11/29 06:20:09;;;;;;;20.73;13.10;;;0.10;99.90;;;;;;8373277;28;20206;-79
2022/11/29 06:24:19;;;;;;;25.43;13.90;;;0.10;99.90;;;;;;8352244;28;20185;-79
2022/11/29 06:28:31;;;;;;;25.43;14.97;;;0.10;99.90;;;;;;8370589;28;20230;-79
2022/11/29 06:32:55;;;;;;;28.27;16.87;;;0.10;99.90;;;;;;8368832;28;20194;-79
2022/11/29 06:37:07;;;;;;;31.17;17.63;;;0.20;99.90;;;;;;8368703;28;20197;-80
2022/11/29 06:41:15;;;;;;;34.53;21.77;;;0.20;99.90;;;;;;8366031;28;20293;-80
2022/11/29 06:45:16;;;;;;;31.03;19.93;;;0.20;99.90;;;;;;8377570;28;20189;-79
2022/11/29 06:49:27;;;;;;;28.50;17.27;;;0.20;99.90;;;;;;8377192;28;20181;-80
2022/11/29 06:53:51;;;;;;;26.97;15.87;;;0.30;99.90;;;;;;8385050;28;20177;-79
2022/11/29 06:58:02;;;;;;;25.33;16.20;;;0.20;99.90;;;;;;8381650;28;20246;-80
2022/11/29 07:02:34;;;;;;;25.13;14.90;;;0.30;99.90;;;;;;8377007;28;20503;-80
2022/11/29 07:06:35;;;;;;;22.13;14.47;;;0.30;99.90;;;;;;8382742;28;20232;-79
2022/11/29 07:10:40;;;;;;;22.57;13.47;;;0.30;99.90;;;;;;8380594;28;20189;-78
2022/11/29 07:14:41;;;;;;;23.83;14.50;;;0.40;99.90;;;;;;8382925;28;20192;-79
2022/11/29 07:19:00;;;;;;;23.47;14.37;;;0.40;99.90;;;;;;8376618;28;20185;-79
2022/11/29 07:23:10;;;;;;;23.93;14.40;;;0.50;99.90;;;;;;8378790;28;20192;-79
2022/11/29 07:27:46;;;;;;;24.30;15.13;;;0.50;99.90;;;;;;8384614;28;20178;-80
2022/11/29 07:31:50;;;;;;;28.57;16.33;;;0.60;99.90;;;;;;8380939;28;20216;-79
2022/11/29 07:35:58;;;;;;;28.00;16.83;;;0.70;99.90;;;;;;8384903;28;20528;-79
2022/11/29 07:40:14;;;;;;;37.53;21.90;;;0.70;99.90;;;;;;8393458;28;20329;-79
2022/11/29 07:44:24;;;;;;;42.80;24.13;;;0.80;99.90;;;;;;8373261;28;20193;-79
2022/11/29 07:48:25;;;;;;;36.87;21.70;;;0.90;99.90;;;;;;8375822;28;20200;-80
2022/11/29 07:52:27;;;;;;;32.67;20.00;;;1.00;99.90;;;;;;8381427;28;20221;-79
2022/11/29 07:56:28;;;;;;;36.37;20.33;;;1.10;99.90;;;;;;8379368;28;20201;-79
2022/11/29 08:00:29;;;;;;;34.87;20.97;;;1.20;99.90;;;;;;8370575;28;20209;-80
2022/11/29 08:04:30;;;;;;;37.17;22.33;;;1.30;99.90;;;;;;8378743;28;20192;-79
2022/11/29 08:08:31;;;;;;;35.30;20.23;;;1.50;99.90;;;;;;8368965;28;20188;-79
2022/11/29 08:12:32;;;;;;;35.47;19.80;;;1.50;99.90;;;;;;8372998;28;20217;-79
2022/11/29 08:16:33;;;;;;;34.97;20.33;;;1.60;99.90;;;;;;8374899;28;20276;-79
2022/11/29 08:20:34;;;;;;;35.20;20.97;;;1.70;99.90;;;;;;8380973;28;20240;-80
2022/11/29 08:24:35;;;;;;;34.70;21.67;;;1.90;99.90;;;;;;8367590;28;20212;-80
2022/11/29 08:28:36;;;;;;;41.83;24.43;;;2.00;99.90;;;;;;8377507;28;20188;-80
2022/11/29 08:32:37;;;;;;;48.10;28.90;;;2.10;99.90;;;;;;8374461;28;20515;-79
2022/11/29 08:36:38;;;;;;;50.07;29.03;;;2.20;99.90;;;;;;8371074;28;20446;-80
2022/11/29 08:40:38;;;;;;;50.93;30.90;;;2.30;99.90;;;;;;8368163;28;20206;-80
2022/11/29 08:44:39;;;;;;;45.27;27.97;;;2.40;99.90;;;;;;8374170;28;20178;-80
2022/11/29 08:48:40;;;;;;;54.60;29.33;;;2.60;99.90;;;;;;8380879;28;20211;-79
2022/11/29 08:57:03;;;;;;;145.33;77.80;;;2.70;99.90;;;;;;8373692;28;20228;-79
2022/11/29 09:01:18;;;;;;;120.73;68.27;;;2.60;99.90;;;;;;8369385;28;20208;-80
2022/11/29 09:05:19;;;;;;;110.07;61.37;;;2.60;99.90;;;;;;8372651;28;20209;-80
2022/11/29 09:09:19;;;;;;;102.07;57.27;;;2.60;99.90;;;;;;8369148;28;20194;-80
2022/11/29 09:13:20;;;;;;;88.13;52.97;;;2.60;99.90;;;;;;8370807;28;20196;-79
2022/11/29 09:17:21;;;;;;;78.90;47.77;;;2.70;99.90;;;;;;8364844;28;20194;-80
2022/11/29 09:21:28;;;;;;;72.23;42.80;;;2.90;99.90;;;;;;8367249;28;20213;-80
2022/11/29 09:25:29;;;;;;;69.93;41.27;;;3.10;99.90;;;;;;8373114;28;20185;-80
2022/11/29 09:29:29;;;;;;;73.50;42.10;;;3.30;99.90;;;;;;8371236;28;20381;-79
2022/11/29 09:33:30;;;;;;;89.20;51.63;;;3.50;99.90;;;;;;8367525;28;20192;-79
2022/11/29 09:37:31;;;;;;;69.90;45.43;;;3.60;99.90;;;;;;8368262;28;20182;-80
2022/11/29 09:41:41;;;;;;;82.40;48.63;;;3.70;99.90;;;;;;8375236;28;20201;-80
2022/11/29 09:45:45;;;;;;;172.80;90.37;;;3.80;99.90;;;;;;8368687;28;20177;-79
2022/11/29 09:50:10;;;;;;;186.80;102.63;;;3.80;99.90;;;;;;8368272;28;20181;-80
2022/11/29 09:55:01;;;;;;;184.80;103.73;;;3.70;99.90;;;;;;8367404;28;20189;-79
2022/11/29 09:59:09;;;;;;;129.13;75.03;;;3.70;99.90;;;;;;8369368;28;20303;-80
2022/11/29 10:03:35;;;;;;;100.63;57.10;;;3.70;99.90;;;;;;8369549;28;20194;-80
2022/11/29 10:07:46;;;;;;;90.13;53.13;;;3.90;99.90;;;;;;8370879;28;20174;-80
2022/11/29 10:11:59;;;;;;;97.97;52.10;;;3.90;99.90;;;;;;8374996;28;20188;-79
2022/11/29 10:16:34;;;;;;;80.33;47.33;;;3.90;99.90;;;;;;8372516;28;20273;-80
2022/11/29 10:20:38;;;;;;;81.30;47.77;;;3.90;99.90;;;;;;8364180;28;20209;-79
2022/11/29 10:24:43;;;;;;;75.63;44.87;;;4.00;99.90;;;;;;8371784;28;20211;-80
2022/11/29 10:28:46;;;;;;;74.57;44.97;;;4.10;99.90;;;;;;8368671;28;20515;-80
2022/11/29 10:32:53;;;;;;;75.53;43.83;;;4.10;99.90;;;;;;8368953;28;20264;-79
2022/11/29 10:37:03;;;;;;;83.57;46.43;;;4.10;99.90;;;;;;8370571;28;20185;-80
2022/11/29 10:41:09;;;;;;;65.53;38.63;;;4.00;99.90;;;;;;8373095;28;20277;-80
2022/11/29 10:45:19;;;;;;;67.30;40.10;;;4.10;99.90;;;;;;8364380;28;20176;-80
2022/11/29 10:49:23;;;;;;;89.23;49.37;;;4.20;99.90;;;;;;8368101;28;20197;-79
2022/11/29 10:53:26;;;;;;;92.20;50.03;;;4.40;99.90;;;;;;8368034;28;20260;-80
2022/11/29 10:57:27;;;;;;;84.97;48.47;;;4.40;99.90;;;;;;8369297;28;20209;-79
2022/11/29 11:01:32;;;;;;;100.77;54.20;;;4.50;99.90;;;;;;8364890;28;20215;-80
2022/11/29 11:05:33;;;;;;;97.20;55.10;;;4.60;99.90;;;;;;8375709;28;20210;-80
2022/11/29 11:09:42;;;;;;;109.83;57.40;;;4.60;99.90;;;;;;8370427;28;20178;-79
2022/11/29 11:13:55;;;;;;;152.43;83.77;;;4.60;99.90;;;;;;8368506;28;20301;-80
2022/11/29 11:18:03;;;;;;;85.13;48.23;;;4.70;99.90;;;;;;8366815;28;20197;-79
2022/11/29 11:22:04;;;;;;;51.43;30.30;;;4.70;99.90;;;;;;8366358;28;20239;-79
2022/11/29 11:26:08;;;;;;;62.03;34.70;;;4.60;99.90;;;;;;8368925;28;20388;-80
2022/11/29 11:30:26;;;;;;;47.70;28.57;;;4.50;99.90;;;;;;8368366;28;20198;-79
2022/11/29 11:34:33;;;;;;;53.37;30.23;;;4.50;99.90;;;;;;8374090;28;20181;-80
2022/11/29 11:38:36;;;;;;;44.90;26.00;;;4.70;99.90;;;;;;8376315;28;20193;-80
2022/11/29 11:42:39;;;;;;;40.77;25.87;;;4.70;99.90;;;;;;8374074;28;20209;-80
2022/11/29 11:46:49;;;;;;;42.67;26.70;;;4.80;99.90;;;;;;8373221;28;20268;-80
2022/11/29 11:50:52;;;;;;;37.87;23.57;;;4.90;99.90;;;;;;8390044;28;20189;-79
2022/11/29 11:54:59;;;;;;;42.07;25.07;;;5.10;99.90;;;;;;8371812;28;20170;-79
2022/11/29 11:59:00;;;;;;;40.23;23.87;;;5.30;99.90;;;;;;8376239;28;20216;-80
2022/11/29 12:03:01;;;;;;;41.40;25.13;;;5.40;99.90;;;;;;8370226;28;20233;-79
2022/11/29 12:07:11;;;;;;;35.20;22.07;;;5.50;99.90;;;;;;8370823;28;20182;-79
2022/11/29 12:11:15;;;;;;;35.87;21.60;;;5.70;99.90;;;;;;8378512;28;20224;-79
2022/11/29 12:15:25;;;;;;;35.30;21.47;;;5.90;99.90;;;;;;8376118;28;20190;-80
2022/11/29 12:19:34;;;;;;;30.30;19.13;;;6.00;99.90;;;;;;8380227;28;20220;-79
2022/11/29 12:23:57;;;;;;;38.60;22.37;;;6.20;99.90;;;;;;8376535;28;20185;-79
2022/11/29 12:27:58;;;;;;;39.27;23.10;;;6.20;99.90;;;;;;8370554;28;20204;-79
2022/11/29 12:32:02;;;;;;;30.83;19.53;;;6.30;99.90;;;;;;8373711;28;20228;-79
2022/11/29 12:36:09;;;;;;;40.47;23.67;;;6.30;99.90;;;;;;8374074;28;20190;-79
2022/11/29 12:40:48;;;;;;;37.70;21.97;;;6.20;99.90;;;;;;8367582;28;20252;-79
2022/11/29 12:45:10;;;;;;;33.40;20.53;;;6.10;99.90;;;;;;8376727;28;20192;-79
2022/11/29 12:49:17;;;;;;;44.60;28.20;;;6.20;99.90;;;;;;8377029;28;20193;-80
2022/11/29 12:53:44;;;;;;;38.83;24.03;;;6.30;99.90;;;;;;8377505;28;20240;-80
2022/11/29 12:58:15;;;;;;;29.07;18.50;;;6.40;99.90;;;;;;8373108;28;20208;-80
2022/11/29 13:02:34;;;;;;;37.87;23.00;;;6.50;99.90;;;;;;8370841;28;20227;-80
2022/11/29 13:06:46;;;;;;;32.53;20.43;;;6.50;63.90;;;;;;8366320;28;20196;-79
2022/11/29 13:11:28;;;;;;;29.40;18.30;;;6.40;57.70;;;;;;8375538;28;20185;-80
2022/11/29 13:15:37;;;;;;;29.33;17.57;;;6.40;84.00;;;;;;8391408;28;20190;-79
2022/11/29 13:19:43;;;;;;;24.07;15.87;;;6.40;22.20;;;;;;8375623;28;20209;-79
2022/11/29 13:24:03;;;;;;;28.60;16.77;;;6.40;84.30;;;;;;8367243;28;20181;-79
2022/11/29 13:28:13;;;;;;;31.67;18.17;;;6.50;98.70;;;;;;8369862;28;20275;-79
2022/11/29 13:32:46;;;;;;;32.40;19.97;;;6.50;90.20;;;;;;8374325;28;20209;-80
2022/11/29 13:37:01;;;;;;;30.93;19.20;;;6.40;53.10;;;;;;8370062;28;20186;-79
2022/11/29 13:41:25;;;;;;;30.10;19.60;;;6.30;99.90;;;;;;8373549;28;20211;-79
2022/11/29 13:45:39;;;;;;;30.37;18.00;;;6.20;99.90;;;;;;8369463;28;20204;-80
2022/11/29 13:50:19;;;;;;;28.97;18.53;;;6.10;99.90;;;;;;8364949;28;20273;-79
2022/11/29 13:54:32;;;;;;;34.57;20.67;;;6.10;99.90;;;;;;8365243;28;20201;-79
2022/11/29 13:58:34;;;;;;;30.90;18.60;;;6.00;99.90;;;;;;8366446;28;20271;-80
2022/11/29 14:02:35;;;;;;;30.53;18.37;;;6.00;99.90;;;;;;8369921;28;20209;-80
2022/11/29 14:06:37;;;;;;;31.20;18.60;;;6.00;99.90;;;;;;8375419;28;20205;-80
2022/11/29 14:10:38;;;;;;;27.03;17.80;;;5.80;99.90;;;;;;8365483;28;20189;-80
2022/11/29 14:14:49;;;;;;;24.93;15.97;;;5.80;99.90;;;;;;8373896;28;20186;-78
2022/11/29 14:19:05;;;;;;;23.90;15.03;;;5.70;99.90;;;;;;8372772;28;20193;-79
2022/11/29 14:23:09;;;;;;;23.57;15.23;;;5.70;99.90;;;;;;8367591;28;20300;-78
2022/11/29 14:27:18;;;;;;;21.20;14.10;;;5.60;99.90;;;;;;8367509;28;20181;-78
2022/11/29 14:31:49;;;;;;;21.20;13.70;;;5.60;99.90;;;;;;8369195;28;20204;-78
2022/11/29 14:36:12;;;;;;;22.23;14.23;;;5.50;99.90;;;;;;8373094;28;20181;-78
2022/11/29 14:40:26;;;;;;;20.30;12.87;;;5.40;99.90;;;;;;8367610;28;20447;-78
2022/11/29 14:44:30;;;;;;;22.30;13.20;;;5.30;99.90;;;;;;8374582;28;20177;-78
2022/11/29 14:48:32;;;;;;;20.67;13.57;;;5.20;99.90;;;;;;8371671;28;20188;-78
2022/11/29 14:52:38;;;;;;;19.70;12.63;;;5.20;99.90;;;;;;8377435;28;20227;-79
2022/11/29 14:56:41;;;;;;;22.17;14.43;;;5.10;99.90;;;;;;8372175;28;20255;-78
2022/11/29 15:00:48;;;;;;;22.77;13.63;;;5.00;99.90;;;;;;8362654;28;20206;-78
2022/11/29 15:04:51;;;;;;;21.53;13.17;;;4.90;99.90;;;;;;8375693;28;20191;-78
2022/11/29 15:09:12;;;;;;;17.53;12.43;;;4.80;99.90;;;;;;8376208;28;20177;-78
2022/11/29 15:13:18;;;;;;;20.77;13.03;;;4.80;99.90;;;;;;8357912;28;20315;-78
2022/11/29 15:17:52;;;;;;;18.67;12.50;;;4.70;99.90;;;;;;8374162;28;20220;-79
2022/11/29 15:21:53;;;;;;;19.47;12.07;;;4.60;99.90;;;;;;8373223;28;20280;-79
2022/11/29 15:25:59;;;;;;;19.20;11.67;;;4.50;99.90;;;;;;8373460;28;20177;-79
2022/11/29 15:30:27;;;;;;;17.80;11.00;;;4.40;99.90;;;;;;8370131;28;20261;-79
2022/11/29 15:34:32;;;;;;;16.63;11.20;;;4.20;99.90;;;;;;8373451;28;20185;-79
2022/11/29 15:39:00;;;;;;;19.77;12.17;;;4.10;99.90;;;;;;8380438;28;20182;-79
2022/11/29 15:43:33;;;;;;;21.67;14.47;;;3.90;99.90;;;;;;8371592;28;20311;-78
2022/11/29 15:47:34;;;;;;;20.53;13.47;;;3.80;99.90;;;;;;8373282;28;20188;-79
2022/11/29 15:51:38;;;;;;;19.73;13.07;;;3.60;99.90;;;;;;8375586;28;20296;-79
2022/11/29 15:55:39;;;;;;;20.30;13.77;;;3.40;99.90;;;;;;8368755;28;20314;-79
2022/11/29 15:59:47;;;;;;;22.27;13.83;;;3.30;99.90;;;;;;8370821;28;20229;-78
2022/11/29 16:03:52;;;;;;;21.50;13.10;;;3.20;99.90;;;;;;8373142;28;20181;-79
2022/11/29 16:07:57;;;;;;;23.50;13.73;;;3.00;99.90;;;;;;8366131;28;20477;-79
2022/11/29 16:12:00;;;;;;;21.97;13.43;;;2.90;99.90;;;;;;8370496;28;20212;-78
2022/11/29 16:16:15;;;;;;;23.10;14.20;;;2.70;99.90;;;;;;8365049;28;20252;-78
2022/11/29 16:20:17;;;;;;;24.03;14.17;;;2.60;99.90;;;;;;8372846;28;20328;-79
2022/11/29 16:24:21;;;;;;;23.33;13.67;;;2.50;99.90;;;;;;8370636;28;20180;-79
2022/11/29 16:28:25;;;;;;;22.03;13.50;;;2.30;99.90;;;;;;8364235;28;20210;-79
2022/11/29 16:32:30;;;;;;;19.40;12.37;;;2.20;99.90;;;;;;8376310;28;20193;-79
2022/11/29 16:36:31;;;;;;;22.53;12.70;;;2.10;99.90;;;;;;8377364;28;20192;-79
2022/11/29 16:40:34;;;;;;;23.70;12.03;;;1.90;99.90;;;;;;8372911;28;20269;-79
2022/11/29 16:44:41;;;;;;;21.47;13.20;;;1.80;99.90;;;;;;8370357;28;20192;-78
2022/11/29 16:48:42;;;;;;;20.37;13.17;;;1.70;99.90;;;;;;8376739;28;20177;-78
2022/11/29 16:52:43;;;;;;;23.97;14.77;;;1.70;99.90;;;;;;8371139;28;20196;-79
2022/11/29 16:56:44;;;;;;;23.77;14.17;;;1.60;99.90;;;;;;8374275;28;20209;-79
2022/11/29 17:00:45;;;;;;;20.70;13.03;;;1.50;99.90;;;;;;8374584;28;20206;-79
2022/11/29 17:04:46;;;;;;;20.67;12.90;;;1.40;99.90;;;;;;8376489;28;20203;-79
2022/11/29 17:08:47;;;;;;;23.27;12.97;;;1.40;99.90;;;;;;8370739;28;20178;-79
2022/11/29 17:12:49;;;;;;;19.40;12.43;;;1.30;99.90;;;;;;8367665;28;20186;-78
2022/11/29 17:16:50;;;;;;;21.23;13.47;;;1.20;99.90;;;;;;8370995;28;20189;-78
2022/11/29 17:20:54;;;;;;;30.63;17.40;;;1.20;99.90;;;;;;8372443;28;20205;-78
2022/11/29 17:24:55;;;;;;;33.63;18.80;;;1.10;99.90;;;;;;8372203;28;20182;-79
2022/11/29 17:28:56;;;;;;;28.63;18.13;;;1.10;99.90;;;;;;8369427;28;20196;-79
2022/11/29 17:32:57;;;;;;;28.90;17.43;;;1.10;99.90;;;;;;8373153;28;20185;-78
2022/11/29 17:37:01;;;;;;;26.93;16.77;;;1.10;99.90;;;;;;8376278;28;20192;-78
2022/11/29 17:41:27;;;;;;;25.63;15.63;;;1.10;99.90;;;;;;8363780;28;20241;-79
2022/11/29 17:45:28;;;;;;;22.33;15.03;;;1.00;99.90;;;;;;8372716;28;20209;-79
2022/11/29 17:49:29;;;;;;;27.57;15.73;;;1.00;99.90;;;;;;8377708;28;20587;-79
2022/11/29 17:53:31;;;;;;;25.40;16.07;;;1.00;99.90;;;;;;8375200;28;20177;-78
2022/11/29 17:57:32;;;;;;;25.43;16.03;;;1.10;99.90;;;;;;8371375;28;20200;-79
2022/11/29 18:01:34;;;;;;;29.57;16.77;;;1.10;99.90;;;;;;8375087;28;20214;-79
2022/11/29 18:05:35;;;;;;;26.63;15.47;;;1.20;99.90;;;;;;8367881;28;20193;-79
2022/11/29 18:09:36;;;;;;;26.67;15.40;;;1.30;99.90;;;;;;8373561;28;20197;-78
2022/11/29 18:13:37;;;;;;;28.80;15.63;;;1.30;99.90;;;;;;8370236;28;20178;-79
2022/11/29 18:17:38;;;;;;;23.27;15.47;;;1.30;99.90;;;;;;8367520;28;20208;-79
2022/11/29 18:21:39;;;;;;;26.97;15.37;;;1.30;99.90;;;;;;8370672;28;20201;-78
2022/11/29 18:25:40;;;;;;;24.17;14.40;;;1.40;99.90;;;;;;8364287;28;20174;-80
2022/11/29 18:29:41;;;;;;;25.00;16.17;;;1.40;99.90;;;;;;8372331;28;20196;-80
2022/11/29 18:33:44;;;;;;;24.10;14.67;;;1.40;99.90;;;;;;8370101;28;20182;-79
2022/11/29 18:37:44;;;;;;;29.67;17.67;;;1.40;99.90;;;;;;8373903;28;20177;-80
2022/11/29 18:41:47;;;;;;;30.93;17.77;;;1.50;99.90;;;;;;8367652;28;20224;-80
2022/11/29 18:45:48;;;;;;;29.10;18.20;;;1.50;99.90;;;;;;8377698;28;20177;-80
2022/11/29 18:49:49;;;;;;;29.70;16.50;;;1.50;99.90;;;;;;8374517;28;20189;-80
2022/11/29 18:53:50;;;;;;;26.47;16.77;;;1.50;99.90;;;;;;8372209;28;20268;-80
2022/11/29 18:57:54;;;;;;;29.87;18.77;;;1.60;99.90;;;;;;8366955;28;20240;-79
2022/11/29 19:01:55;;;;;;;31.37;19.33;;;1.60;99.90;;;;;;8367511;28;20212;-80
2022/11/29 19:05:56;;;;;;;33.90;20.53;;;1.60;99.90;;;;;;8366572;28;20174;-80
2022/11/29 19:09:57;;;;;;;31.63;21.37;;;1.60;99.90;;;;;;8367780;28;20210;-80
2022/11/29 19:14:03;;;;;;;38.47;24.33;;;1.50;99.90;;;;;;8361869;28;20185;-80
2022/11/29 19:18:04;;;;;;;40.10;26.37;;;1.50;99.90;;;;;;8362009;28;20186;-80
2022/11/29 19:22:05;;;;;;;50.00;29.07;;;1.50;99.90;;;;;;8370695;28;20212;-80
2022/11/29 19:26:11;;;;;;;41.63;26.40;;;1.50;99.90;;;;;;8364706;28;20188;-80
2022/11/29 19:30:14;;;;;;;34.07;21.30;;;1.40;99.90;;;;;;8371693;28;20262;-81
2022/11/29 19:34:15;;;;;;;55.30;33.87;;;1.40;99.90;;;;;;8360170;28;20178;-80
2022/11/29 19:38:16;;;;;;;151.70;67.87;;;1.40;99.90;;;;;;8368232;28;20185;-80
2022/11/29 19:42:17;;;;;;;151.07;70.00;;;1.40;99.90;;;;;;8379376;28;20320;-80
2022/11/29 19:46:21;;;;;;;124.33;58.57;;;1.30;99.90;;;;;;8367234;28;20185;-80
2022/11/29 19:50:22;;;;;;;103.43;49.87;;;1.30;99.90;;;;;;8366200;28;20177;-80
2022/11/29 19:54:23;;;;;;;61.83;33.17;;;1.20;99.90;;;;;;8378363;28;20192;-79
2022/11/29 19:58:24;;;;;;;53.07;29.87;;;1.10;99.90;;;;;;8374293;28;20197;-80
2022/11/29 20:02:24;;;;;;;44.17;25.80;;;1.00;99.90;;;;;;8380091;28;20206;-79
2022/11/29 20:06:27;;;;;;;40.20;23.57;;;0.90;99.90;;;;;;8371640;28;20185;-79
2022/11/29 20:10:28;;;;;;;36.27;21.97;;;0.80;99.90;;;;;;8375438;28;20288;-78
2022/11/29 20:14:29;;;;;;;44.23;23.27;;;0.70;99.90;;;;;;8371101;28;20181;-79
2022/11/29 20:18:35;;;;;;;39.93;22.67;;;0.70;99.90;;;;;;8376111;28;20207;-79
2022/11/29 20:22:37;;;;;;;44.20;22.63;;;0.60;99.90;;;;;;8374241;28;20206;-79
2022/11/29 20:26:40;;;;;;;35.20;21.20;;;0.60;99.90;;;;;;8370444;28;20182;-79
2022/11/29 20:30:40;;;;;;;35.07;20.03;;;0.60;99.90;;;;;;8373123;28;20292;-79
2022/11/29 20:34:42;;;;;;;38.77;22.37;;;0.60;99.90;;;;;;8367449;28;20212;-79
2022/11/29 20:38:49;;;;;;;57.53;30.60;;;0.60;99.90;;;;;;8371491;28;20224;-79
2022/11/29 20:43:16;;;;;;;63.83;35.63;;;0.60;99.90;;;;;;8369945;28;20205;-79
2022/11/29 20:47:20;;;;;;;61.20;32.20;;;0.70;99.90;;;;;;8376034;28;20181;-79
2022/11/29 20:51:35;;;;;;;85.67;43.67;;;0.70;99.90;;;;;;8371756;28;20280;-79
2022/11/29 20:55:38;;;;;;;101.97;48.73;;;0.70;99.90;;;;;;8368164;28;20387;-78
2022/11/29 20:59:38;;;;;;;123.67;54.30;;;0.70;99.90;;;;;;8368170;28;20201;-79
2022/11/29 21:03:39;;;;;;;90.53;47.17;;;0.70;99.90;;;;;;8373412;28;20187;-79
2022/11/29 21:07:40;;;;;;;130.73;63.57;;;0.70;99.90;;;;;;8372957;28;20188;-79
2022/11/29 21:11:42;;;;;;;140.33;69.03;;;0.70;99.90;;;;;;8371071;28;20268;-79
2022/11/29 21:15:43;;;;;;;143.20;67.80;;;0.70;99.90;;;;;;8370785;28;20193;-78
2022/11/29 21:19:44;;;;;;;115.33;60.93;;;0.70;99.90;;;;;;8366370;28;20196;-79
2022/11/29 21:23:54;;;;;;;79.43;41.27;;;0.70;99.90;;;;;;8368511;28;20219;-79